Naval Air Station Jacksonville

Airport
ICAO code: 
KNIP
Summary
ICAO Region: 
NAM
Territory: 
Location: 
Jacksonville, Florida,
Coordinates: 
Aerial View: 
30° 13' 56.014" N, 81° 40' 48.935" W
Metar
Observation
KNIP 040653Z 26006KT 10SM SCT250 14/13 A3012 RMK AO2 SLP196 T01390128
Station
Jacksonville, Naval Air Station
Date/Time
2021-12-04 06:53:00
Wind direction
260°
Wind speed
06 kts
Lowest cloud amount
scattered clouds
Temperature
13.9°C
Dew point
12.8°C
Humidity
93%
Weather condition
n/a

Description

Naval Air Station Jacksonville, or NAS Jacksonville, is a military airport located 6 km south of the central business district of Jacksonville, Florida.

Climatology

Humid “subtropical” climate (Köppen climate classification Cfa) - characterized by hot, humid summers and cool winters. Significant amounts of precipitation occur in all seasons in most areas. Winter rainfall (and sometimes snowfall) is associated with large storms that the westerlies steer from west to east. Most summer rainfall occurs during thunderstorms and occasional tropical storms (hurricanes).

Runways

Designator Length Width Surface Rops
14/32 1824 61 ASP Yes/Yes
10/28 2439 61 ASPH Yes/Yes
Airport map: 
Aerial View: 

SKYbrary Partners:

Safety knowledge contributed by: